createdAt,value
2018-10-21T00:01:21.306Z,9.90
2018-10-21T00:03:48.920Z,11.00
2018-10-21T00:06:16.593Z,11.63
2018-10-21T00:08:44.363Z,11.30
2018-10-21T00:11:12.089Z,12.93
2018-10-21T00:13:39.877Z,12.83
2018-10-21T00:16:07.596Z,10.80
2018-10-21T00:18:35.273Z,11.20
2018-10-21T00:21:03.066Z,13.25
2018-10-21T00:23:30.673Z,12.53
2018-10-21T00:25:58.415Z,13.08
2018-10-21T00:28:26.117Z,12.58
2018-10-21T00:30:53.807Z,12.25
2018-10-21T00:33:21.524Z,12.27
2018-10-21T00:35:49.179Z,12.43
2018-10-21T00:38:16.797Z,13.20
2018-10-21T00:40:44.454Z,12.10
2018-10-21T00:43:12.113Z,13.63
2018-10-21T00:45:39.753Z,13.97
2018-10-21T00:48:07.451Z,11.43
2018-10-21T00:50:35.106Z,13.83
2018-10-21T00:53:02.798Z,13.17
2018-10-21T00:55:30.497Z,13.03
2018-10-21T00:57:58.122Z,11.78
2018-10-21T01:00:25.762Z,11.53
2018-10-21T01:02:53.574Z,13.60
2018-10-21T01:05:21.199Z,12.90
2018-10-21T01:07:48.886Z,12.70
2018-10-21T01:10:16.550Z,12.78
2018-10-21T01:12:44.316Z,13.13
2018-10-21T01:15:12.631Z,13.40
2018-10-21T01:17:40.271Z,13.80
2018-10-21T01:20:10.351Z,14.90
2018-10-21T01:22:38.239Z,14.20
2018-10-21T01:25:06.486Z,12.73
2018-10-21T01:27:34.206Z,13.13
2018-10-21T01:30:02.081Z,13.90
2018-10-21T01:32:29.784Z,14.50
2018-10-21T01:34:57.434Z,13.90
2018-10-21T01:37:25.183Z,13.67
2018-10-21T01:40:58.407Z,13.03
2018-10-21T01:43:29.020Z,13.57
2018-10-21T01:45:57.074Z,13.10
2018-10-21T01:48:25.929Z,14.00
2018-10-21T01:50:53.558Z,14.47
2018-10-21T01:53:21.722Z,14.23
2018-10-21T01:55:49.333Z,13.70
2018-10-21T01:58:17.005Z,14.00
2018-10-21T02:00:44.895Z,14.63
2018-10-21T02:03:12.731Z,14.00
2018-10-21T02:05:41.258Z,13.88
2018-10-21T02:08:08.932Z,14.80
2018-10-21T02:10:36.582Z,14.50
2018-10-21T02:13:04.339Z,15.40
2018-10-21T02:15:32.007Z,13.63
2018-10-21T02:17:59.683Z,14.97
2018-10-21T02:20:27.568Z,14.50
2018-10-21T02:22:55.225Z,14.57
2018-10-21T02:25:22.956Z,14.40
2018-10-21T02:27:51.342Z,15.35
2018-10-21T02:30:21.190Z,15.70
2018-10-21T02:32:49.672Z,14.87
2018-10-21T02:35:17.915Z,14.33
2018-10-21T02:37:45.918Z,15.07
2018-10-21T02:41:39.890Z,16.20
2018-10-21T02:44:11.977Z,13.90
2018-10-21T02:46:40.238Z,15.27
2018-10-21T02:49:08.911Z,16.80
2018-10-21T02:51:36.501Z,16.73
2018-10-21T02:54:04.977Z,17.30
2018-10-21T02:56:32.726Z,15.93
2018-10-21T02:59:00.477Z,17.63
2018-10-21T03:01:28.136Z,16.07
2018-10-21T03:03:55.761Z,15.43
2018-10-21T03:06:23.465Z,16.27
2018-10-21T03:08:51.177Z,14.50
2018-10-21T03:11:18.869Z,16.33
2018-10-21T03:13:46.933Z,16.10
2018-10-21T03:16:14.647Z,16.67
2018-10-21T03:18:42.389Z,16.50
2018-10-21T03:21:10.168Z,16.15
2018-10-21T03:23:37.919Z,15.30
2018-10-21T03:26:05.585Z,17.27
2018-10-21T03:28:33.717Z,14.10
2018-10-21T03:31:01.528Z,17.00
2018-10-21T03:33:35.963Z,16.70
2018-10-21T03:36:03.607Z,15.20
2018-10-21T03:38:31.298Z,15.23
2018-10-21T03:40:58.922Z,16.27
2018-10-21T03:43:26.545Z,16.33
2018-10-21T03:45:54.343Z,17.10
2018-10-21T03:48:21.919Z,16.27
2018-10-21T03:50:49.583Z,14.90
2018-10-21T03:53:17.270Z,15.85
2018-10-21T03:55:44.927Z,16.80
2018-10-21T03:58:12.948Z,16.33
2018-10-21T04:00:40.589Z,15.43
2018-10-21T04:03:08.601Z,17.57
2018-10-21T04:05:36.561Z,14.80
2018-10-21T04:08:04.335Z,16.93
2018-10-21T04:10:32.312Z,16.07
2018-10-21T04:13:00.193Z,15.30
2018-10-21T04:15:27.903Z,15.57
2018-10-21T04:17:55.796Z,14.77
2018-10-21T04:20:23.574Z,17.83
2018-10-21T04:22:56.257Z,15.93
2018-10-21T04:25:24.965Z,16.27
2018-10-21T04:27:53.638Z,13.77
2018-10-21T04:30:25.846Z,16.63
2018-10-21T04:32:59.139Z,15.30
2018-10-21T04:35:27.042Z,14.97
2018-10-21T04:40:17.740Z,15.90
2018-10-21T04:42:45.962Z,16.60
2018-10-21T04:45:15.922Z,17.20
2018-10-21T04:47:43.560Z,15.87
2018-10-21T04:50:11.752Z,16.12
2018-10-21T04:52:39.473Z,15.80
2018-10-21T04:55:10.411Z,14.60
2018-10-21T04:57:40.119Z,15.97
2018-10-21T05:00:13.966Z,15.93
2018-10-21T05:02:41.709Z,15.03
2018-10-21T05:05:10.572Z,14.50
2018-10-21T05:07:38.668Z,16.53
2018-10-21T05:10:31.984Z,16.00
2018-10-21T05:12:59.709Z,15.80
2018-10-21T05:15:28.625Z,16.43
2018-10-21T05:17:56.463Z,16.20
2018-10-21T05:20:24.253Z,17.13
2018-10-21T05:22:51.939Z,15.07
2018-10-21T05:25:19.629Z,17.80
2018-10-21T05:27:47.291Z,16.42
2018-10-21T05:32:49.118Z,17.57
2018-10-21T05:35:17.730Z,16.23
2018-10-21T05:37:45.432Z,17.30
2018-10-21T05:40:15.953Z,17.47
2018-10-21T05:42:44.029Z,15.30
2018-10-21T05:45:11.747Z,16.07
2018-10-21T05:47:39.736Z,17.13
2018-10-21T05:50:08.992Z,15.57
2018-10-21T05:52:37.029Z,16.07
2018-10-21T05:55:05.313Z,16.23
2018-10-21T05:57:33.031Z,17.83
2018-10-21T06:00:00.640Z,16.50
2018-10-21T06:02:28.353Z,15.18
2018-10-21T06:04:55.991Z,17.40
2018-10-21T06:07:23.828Z,15.97
2018-10-21T06:09:51.963Z,16.60
2018-10-21T06:12:19.596Z,16.90
2018-10-21T06:14:48.480Z,16.20
2018-10-21T06:17:21.369Z,16.87
2018-10-21T06:19:54.972Z,17.10
2018-10-21T06:22:22.627Z,17.27
2018-10-21T06:24:50.239Z,17.80
2018-10-21T06:27:17.994Z,17.30
2018-10-21T06:29:45.615Z,17.50
2018-10-21T06:32:13.287Z,15.70
2018-10-21T06:34:40.952Z,16.80
2018-10-21T06:37:08.554Z,15.25
2018-10-21T06:39:36.196Z,16.35
2018-10-21T06:42:04.049Z,17.27
2018-10-21T06:44:31.897Z,15.93
2018-10-21T06:46:59.508Z,16.20
2018-10-21T06:49:27.122Z,18.50
2018-10-21T06:51:54.792Z,18.55
2018-10-21T06:54:22.414Z,15.80
2018-10-21T06:56:50.340Z,17.00
2018-10-21T06:59:17.995Z,17.98
2018-10-21T07:01:45.730Z,17.42
2018-10-21T07:04:13.474Z,17.47
2018-10-21T07:06:41.206Z,17.33
2018-10-21T07:09:08.827Z,17.40
2018-10-21T07:11:36.695Z,17.80
2018-10-21T07:14:04.369Z,16.50
2018-10-21T07:16:32.170Z,18.27
2018-10-21T07:18:59.722Z,18.70
2018-10-21T07:21:27.377Z,17.63
2018-10-21T07:23:54.994Z,16.80
2018-10-21T07:26:22.671Z,17.47
2018-10-21T07:28:50.365Z,17.02
2018-10-21T07:31:18.011Z,16.67
2018-10-21T07:33:45.729Z,16.17
2018-10-21T07:36:13.478Z,16.25
2018-10-21T07:38:41.092Z,15.33
2018-10-21T07:41:08.819Z,16.27
2018-10-21T07:43:36.505Z,17.53
2018-10-21T07:46:04.328Z,18.83
2018-10-21T07:48:32.025Z,16.55
2018-10-21T07:50:59.759Z,17.10
2018-10-21T07:53:27.411Z,17.87
2018-10-21T07:55:55.143Z,18.60
2018-10-21T07:58:22.860Z,18.00
2018-10-21T08:00:50.629Z,17.73
2018-10-21T08:03:18.332Z,16.27
2018-10-21T08:06:17.427Z,15.58
2018-10-21T08:08:45.149Z,16.07
2018-10-21T08:11:12.793Z,17.17
2018-10-21T08:13:40.379Z,15.93
2018-10-21T08:16:08.270Z,18.47
2018-10-21T08:18:35.409Z,19.50
2018-10-21T08:21:03.248Z,16.97
2018-10-21T08:23:31.035Z,18.20
2018-10-21T08:25:58.704Z,17.27
2018-10-21T08:28:26.338Z,18.97
2018-10-21T08:30:54.514Z,17.87
2018-10-21T08:33:22.522Z,19.80
2018-10-21T08:35:50.543Z,19.40
2018-10-21T08:38:18.210Z,19.73
2018-10-21T08:40:46.035Z,19.40
2018-10-21T08:43:13.756Z,17.90
2018-10-21T08:45:41.528Z,20.20
2018-10-21T08:48:09.266Z,17.80
2018-10-21T08:50:36.934Z,21.07
2018-10-21T08:53:04.689Z,18.35
2018-10-21T08:55:32.467Z,20.03
2018-10-21T08:58:00.202Z,18.30
2018-10-21T09:00:27.843Z,19.23
2018-10-21T09:02:55.492Z,18.50
2018-10-21T09:05:23.284Z,18.70
2018-10-21T09:07:51.599Z,18.30
2018-10-21T09:10:19.550Z,17.02
2018-10-21T09:12:47.285Z,18.23
2018-10-21T09:15:17.341Z,17.98
2018-10-21T09:17:44.973Z,19.07
2018-10-21T09:20:15.667Z,18.27
2018-10-21T09:22:43.452Z,17.77
2018-10-21T09:25:12.980Z,19.00
2018-10-21T09:27:41.640Z,18.73
2018-10-21T09:30:11.534Z,19.57
2018-10-21T09:32:39.456Z,18.80
2018-10-21T09:35:09.667Z,19.10
2018-10-21T09:37:37.543Z,18.13
2018-10-21T09:40:07.472Z,20.93
2018-10-21T09:42:35.095Z,17.87
2018-10-21T09:45:02.839Z,19.80
2018-10-21T09:47:30.601Z,17.07
2018-10-21T09:49:58.385Z,17.57
2018-10-21T09:52:26.021Z,17.13
2018-10-21T09:54:53.855Z,18.50
2018-10-21T09:57:21.609Z,20.40
2018-10-21T09:59:49.405Z,18.13
2018-10-21T10:02:23.044Z,19.13
2018-10-21T10:04:50.817Z,21.77
2018-10-21T10:07:18.542Z,18.30
2018-10-21T10:09:46.311Z,22.52
2018-10-21T10:12:14.349Z,21.20
2018-10-21T10:14:42.121Z,21.23
2018-10-21T10:17:09.950Z,20.48
2018-10-21T10:19:37.953Z,19.42
2018-10-21T10:22:05.756Z,20.20
2018-10-21T10:24:33.511Z,20.97
2018-10-21T10:27:01.304Z,21.40
2018-10-21T10:29:29.041Z,20.47
2018-10-21T10:31:56.768Z,18.47
2018-10-21T10:34:24.489Z,23.80
2018-10-21T10:36:52.229Z,18.00
2018-10-21T10:39:20.032Z,18.43
2018-10-21T10:41:47.898Z,16.85
2018-10-21T10:44:15.562Z,17.50
2018-10-21T10:46:43.240Z,17.48
2018-10-21T10:49:10.933Z,19.43
2018-10-21T10:51:38.686Z,17.93
2018-10-21T10:54:06.385Z,17.53
2018-10-21T10:56:34.155Z,13.50
2018-10-21T10:59:01.865Z,14.90
2018-10-21T11:01:29.728Z,12.60
2018-10-21T11:03:57.660Z,12.10
2018-10-21T11:06:25.503Z,9.90
2018-10-21T11:08:53.133Z,9.97
2018-10-21T11:11:24.644Z,10.65
2018-10-21T11:13:52.358Z,9.17
2018-10-21T11:16:20.116Z,9.57
2018-10-21T11:18:47.876Z,9.53
2018-10-21T11:21:15.834Z,8.45
2018-10-21T11:23:43.656Z,7.60
2018-10-21T11:26:11.464Z,8.03
2018-10-21T11:28:39.284Z,7.47
2018-10-21T11:31:07.079Z,7.20
2018-10-21T11:33:34.745Z,8.53
2018-10-21T11:36:02.548Z,5.57
2018-10-21T11:38:30.299Z,5.27
2018-10-21T11:40:58.085Z,3.30
2018-10-21T11:43:25.923Z,5.60
2018-10-21T11:45:53.687Z,6.20
2018-10-21T11:48:21.368Z,5.90
2018-10-21T11:50:49.078Z,4.67
2018-10-21T11:53:16.817Z,5.77
2018-10-21T11:55:45.068Z,4.20
2018-10-21T11:58:14.219Z,5.30
2018-10-21T12:00:42.970Z,6.23
2018-10-21T12:03:11.297Z,5.73
2018-10-21T12:05:40.192Z,6.90
2018-10-21T12:08:08.219Z,7.00
2018-10-21T12:10:36.062Z,5.37
2018-10-21T12:13:04.464Z,5.57
2018-10-21T12:15:32.382Z,6.60
2018-10-21T12:18:00.083Z,5.20
2018-10-21T12:20:27.786Z,4.93
2018-10-21T12:22:55.702Z,4.15
2018-10-21T12:25:23.447Z,4.50
2018-10-21T12:27:51.127Z,4.03
2018-10-21T12:30:18.932Z,5.80
2018-10-21T12:32:46.574Z,4.63
2018-10-21T12:35:14.361Z,4.57
2018-10-21T12:37:42.047Z,3.60
2018-10-21T12:40:10.210Z,4.00
2018-10-21T12:42:38.284Z,4.83
2018-10-21T12:45:08.404Z,4.80
2018-10-21T12:47:36.295Z,6.13
2018-10-21T12:50:04.289Z,7.03
2018-10-21T12:52:32.077Z,5.67
2018-10-21T12:54:59.859Z,6.40
2018-10-21T12:57:27.551Z,7.93
2018-10-21T12:59:55.251Z,5.92
2018-10-21T13:02:23.619Z,5.40
2018-10-21T13:04:51.315Z,5.83
2018-10-21T13:07:19.052Z,4.92
2018-10-21T13:09:46.819Z,8.70
2018-10-21T13:12:14.549Z,5.65
2018-10-21T13:14:42.173Z,6.77
2018-10-21T13:17:09.863Z,6.07
2018-10-21T13:19:38.233Z,5.80
2018-10-21T13:22:06.136Z,5.60
2018-10-21T13:24:33.931Z,6.55
2018-10-21T13:27:01.701Z,4.93
2018-10-21T13:29:29.563Z,4.40
2018-10-21T13:31:57.248Z,4.50
2018-10-21T13:34:24.975Z,4.60
2018-10-21T13:36:52.669Z,4.70
2018-10-21T13:39:20.389Z,5.97
2018-10-21T13:41:48.243Z,5.10
2018-10-21T13:44:15.968Z,4.97
2018-10-21T13:46:43.814Z,4.58
2018-10-21T13:49:11.510Z,4.90
2018-10-21T13:51:39.293Z,4.37
2018-10-21T13:54:06.930Z,4.33
2018-10-21T13:56:34.687Z,4.20
2018-10-21T13:59:02.369Z,4.13
2018-10-21T14:01:30.094Z,4.83
2018-10-21T14:03:57.775Z,4.80
2018-10-21T14:06:25.479Z,4.33
2018-10-21T14:08:53.210Z,4.10
2018-10-21T14:11:21.086Z,4.53
2018-10-21T14:13:48.927Z,4.10
2018-10-21T14:16:16.716Z,4.53
2018-10-21T14:18:44.543Z,4.10
2018-10-21T14:21:12.224Z,5.17
2018-10-21T14:23:39.941Z,5.33
2018-10-21T14:26:07.622Z,3.80
2018-10-21T14:28:35.409Z,5.17
2018-10-21T14:31:03.399Z,4.72
2018-10-21T14:33:31.348Z,6.00
2018-10-21T14:35:59.027Z,5.23
2018-10-21T14:38:26.812Z,5.42
2018-10-21T14:40:54.544Z,4.17
2018-10-21T14:43:22.488Z,4.72
2018-10-21T14:45:50.326Z,5.10
2018-10-21T14:48:18.136Z,4.90
2018-10-21T14:50:45.790Z,6.00
2018-10-21T14:53:13.673Z,4.33
2018-10-21T14:55:41.595Z,5.60
2018-10-21T14:58:09.530Z,4.63
2018-10-21T15:00:37.630Z,5.10
2018-10-21T15:03:06.673Z,5.60
2018-10-21T15:05:34.377Z,4.30
2018-10-21T15:08:02.457Z,3.58
2018-10-21T15:10:30.125Z,4.80
2018-10-21T15:12:57.845Z,4.00
2018-10-21T15:15:25.807Z,4.05
2018-10-21T15:17:53.533Z,4.70
2018-10-21T15:20:21.236Z,4.33
2018-10-21T15:22:49.037Z,4.50
2018-10-21T15:25:16.716Z,3.77
2018-10-21T15:27:44.547Z,5.20
2018-10-21T15:30:12.572Z,5.87
2018-10-21T15:32:40.623Z,4.20
2018-10-21T15:35:08.741Z,4.47
2018-10-21T15:37:36.427Z,4.55
2018-10-21T15:40:06.026Z,6.60
2018-10-21T15:42:33.780Z,7.70
2018-10-21T15:45:01.564Z,5.30
2018-10-21T15:47:29.305Z,5.00
2018-10-21T15:49:57.113Z,5.08
2018-10-21T15:52:24.861Z,5.28
2018-10-21T15:54:52.719Z,4.97
2018-10-21T15:57:20.454Z,5.10
2018-10-21T15:59:48.227Z,6.37
2018-10-21T16:02:16.175Z,5.70
2018-10-21T16:04:43.861Z,5.97
2018-10-21T16:07:11.531Z,6.87
2018-10-21T16:09:39.184Z,6.90
2018-10-21T16:12:06.939Z,5.58
2018-10-21T16:14:34.620Z,6.22
2018-10-21T16:17:02.340Z,8.03
2018-10-21T16:19:30.163Z,6.23
2018-10-21T16:21:57.952Z,6.70
2018-10-21T16:24:25.676Z,9.20
2018-10-21T16:26:53.486Z,8.20
2018-10-21T16:29:21.235Z,7.30
2018-10-21T16:31:49.315Z,7.65
2018-10-21T16:34:17.081Z,7.87
2018-10-21T16:36:44.728Z,7.20
2018-10-21T16:39:12.433Z,7.53
2018-10-21T16:41:40.184Z,7.85
2018-10-21T16:44:07.920Z,11.80
2018-10-21T16:46:35.663Z,10.80
2018-10-21T16:49:03.434Z,10.17
2018-10-21T16:51:31.216Z,10.50
2018-10-21T16:53:58.972Z,9.00
2018-10-21T16:56:26.757Z,7.97
2018-10-21T16:58:54.489Z,8.15
2018-10-21T17:01:22.225Z,6.72
2018-10-21T17:03:50.045Z,7.35
2018-10-21T17:06:17.741Z,8.07
2018-10-21T17:08:45.545Z,8.63
2018-10-21T17:11:13.547Z,8.63
2018-10-21T17:13:41.335Z,8.17
2018-10-21T17:16:09.132Z,8.80
2018-10-21T17:18:36.859Z,9.57
2018-10-21T17:21:04.948Z,8.33
2018-10-21T17:23:32.753Z,7.80
2018-10-21T17:26:02.274Z,8.27
2018-10-21T17:28:30.004Z,8.88
2018-10-21T17:30:57.868Z,8.35
2018-10-21T17:33:25.530Z,7.40
2018-10-21T17:35:53.257Z,9.17
2018-10-21T17:38:20.982Z,8.83
2018-10-21T17:40:48.662Z,8.70
2018-10-21T17:43:16.422Z,8.47
2018-10-21T17:45:44.169Z,8.70
2018-10-21T17:48:11.877Z,8.88
2018-10-21T17:50:39.659Z,7.92
2018-10-21T17:53:07.357Z,9.30
2018-10-21T17:55:35.061Z,8.80
2018-10-21T17:58:02.879Z,8.30
2018-10-21T18:00:30.787Z,7.50
2018-10-21T18:02:58.658Z,8.37
2018-10-21T18:05:26.375Z,9.10
2018-10-21T18:07:54.210Z,9.70
2018-10-21T18:10:21.976Z,10.28
2018-10-21T18:12:49.654Z,10.33
2018-10-21T18:15:17.397Z,10.30
2018-10-21T18:17:45.152Z,11.25
2018-10-21T18:20:13.407Z,11.22
2018-10-21T18:22:41.564Z,13.70
2018-10-21T18:25:09.796Z,10.50
2018-10-21T18:27:37.825Z,11.03
2018-10-21T18:30:07.299Z,10.40
2018-10-21T18:32:35.212Z,10.80
2018-10-21T18:35:03.392Z,11.90
2018-10-21T18:37:31.276Z,10.27
2018-10-21T18:39:58.994Z,11.60
2018-10-21T18:42:26.808Z,10.70
2018-10-21T18:44:54.556Z,10.65
2018-10-21T18:47:22.491Z,11.05
2018-10-21T18:49:50.683Z,11.63
2018-10-21T18:52:18.579Z,11.00
2018-10-21T18:54:46.276Z,12.37
2018-10-21T18:57:14.144Z,10.50
2018-10-21T18:59:42.063Z,15.05
2018-10-21T19:02:10.421Z,14.13
2018-10-21T19:04:38.407Z,11.90
2018-10-21T19:07:06.948Z,13.13
2018-10-21T19:09:34.857Z,13.03
2018-10-21T19:12:02.882Z,27.97
2018-10-21T19:14:31.766Z,13.10
2018-10-21T19:16:59.722Z,12.00
2018-10-21T19:19:27.672Z,17.07
2018-10-21T19:21:55.732Z,12.60
2018-10-21T19:24:23.570Z,11.00
2018-10-21T19:26:51.472Z,11.77
2018-10-21T19:29:19.416Z,10.93
2018-10-21T19:31:47.318Z,10.70
2018-10-21T19:34:15.138Z,11.27
2018-10-21T19:36:43.884Z,11.77
2018-10-21T19:39:12.766Z,11.97
2018-10-21T19:41:40.800Z,12.17
2018-10-21T19:44:10.592Z,12.00
2018-10-21T19:46:38.826Z,11.97
2018-10-21T19:49:07.399Z,13.27
2018-10-21T19:51:35.352Z,12.83
2018-10-21T19:54:03.166Z,15.33
2018-10-21T19:56:31.822Z,13.30
2018-10-21T19:59:01.309Z,13.90
2018-10-21T20:01:29.096Z,11.97
2018-10-21T20:03:56.976Z,11.97
2018-10-21T20:06:24.773Z,11.87
2018-10-21T20:08:52.590Z,12.43
2018-10-21T20:11:20.438Z,13.05
2018-10-21T20:13:48.234Z,12.30
2018-10-21T20:16:16.333Z,12.78
2018-10-21T20:18:44.143Z,12.75
2018-10-21T20:21:11.872Z,12.15
2018-10-21T20:23:39.602Z,12.33
2018-10-21T20:26:07.452Z,12.53
2018-10-21T20:28:35.520Z,14.47
2018-10-21T20:31:03.475Z,11.80
2018-10-21T20:33:31.369Z,11.68
2018-10-21T20:35:59.286Z,12.45
2018-10-21T20:38:27.326Z,12.63
2018-10-21T20:40:55.062Z,14.20
2018-10-21T20:43:23.646Z,12.95
2018-10-21T20:45:51.640Z,13.20
2018-10-21T20:48:19.269Z,12.57
2018-10-21T20:50:47.012Z,13.55
2018-10-21T20:53:14.784Z,13.53
2018-10-21T20:55:42.646Z,14.05
2018-10-21T20:58:10.316Z,12.85
2018-10-21T21:00:38.095Z,13.70
2018-10-21T21:03:05.980Z,14.77
2018-10-21T21:05:33.658Z,14.03
2018-10-21T21:08:01.554Z,13.80
2018-10-21T21:10:29.323Z,15.20
2018-10-21T21:12:57.112Z,13.53
2018-10-21T21:15:24.770Z,13.73
2018-10-21T21:17:52.489Z,13.25
2018-10-21T21:20:20.205Z,13.30
2018-10-21T21:22:48.002Z,13.00
2018-10-21T21:25:15.665Z,14.23
2018-10-21T21:27:43.412Z,12.97
2018-10-21T21:30:11.158Z,13.63
2018-10-21T21:32:38.869Z,12.55
2018-10-21T21:35:07.271Z,14.50
2018-10-21T21:37:35.018Z,14.00
2018-10-21T21:40:02.850Z,14.50
2018-10-21T21:42:30.593Z,13.03
2018-10-21T21:44:58.251Z,12.65
2018-10-21T21:47:25.959Z,12.80
2018-10-21T21:49:53.803Z,13.77
2018-10-21T21:52:21.480Z,13.77
2018-10-21T21:54:49.300Z,14.53
2018-10-21T21:57:16.988Z,13.53
2018-10-21T21:59:44.655Z,13.30
2018-10-21T22:02:12.326Z,13.72
2018-10-21T22:04:39.975Z,14.27
2018-10-21T22:07:07.752Z,13.57
2018-10-21T22:09:35.432Z,13.80
2018-10-21T22:12:03.203Z,14.77
2018-10-21T22:14:30.926Z,14.58
2018-10-21T22:16:58.541Z,14.53
2018-10-21T22:19:26.216Z,15.00
2018-10-21T22:21:53.958Z,13.98
2018-10-21T22:24:21.669Z,15.60
2018-10-21T22:26:49.364Z,13.60
2018-10-21T22:29:17.141Z,14.37
2018-10-21T22:31:44.863Z,15.20
2018-10-21T22:34:12.666Z,15.70
2018-10-21T22:36:40.284Z,15.80
2018-10-21T22:39:07.978Z,16.17
2018-10-21T22:41:35.772Z,14.60
2018-10-21T22:44:03.615Z,16.37
2018-10-21T22:46:31.280Z,16.63
2018-10-21T22:48:58.927Z,16.80
2018-10-21T22:51:26.594Z,14.40
2018-10-21T22:53:54.467Z,15.17
2018-10-21T22:56:22.158Z,15.70
2018-10-21T22:58:49.968Z,15.47
2018-10-21T23:01:17.616Z,17.52
2018-10-21T23:03:45.262Z,16.87
2018-10-21T23:06:12.930Z,17.43
2018-10-21T23:08:40.518Z,14.97
2018-10-21T23:11:08.209Z,16.17
2018-10-21T23:13:35.899Z,14.80
2018-10-21T23:16:04.156Z,15.37
2018-10-21T23:18:31.904Z,16.67
2018-10-21T23:20:59.774Z,16.52
2018-10-21T23:23:27.510Z,18.42
2018-10-21T23:25:55.173Z,15.05
2018-10-21T23:28:22.807Z,15.40
2018-10-21T23:30:50.578Z,17.27
2018-10-21T23:33:18.269Z,18.40
2018-10-21T23:35:45.979Z,16.03
2018-10-21T23:38:13.642Z,17.17
2018-10-21T23:40:41.356Z,15.27
2018-10-21T23:43:09.001Z,15.80
2018-10-21T23:45:36.585Z,16.27
2018-10-21T23:48:04.482Z,16.70
2018-10-21T23:50:32.146Z,16.63
2018-10-21T23:52:59.783Z,16.07
2018-10-21T23:55:27.519Z,16.13
2018-10-21T23:57:55.185Z,18.10
